Time;durP1;ratioP1;P1;durP2;ratioP2;P2;SDS_P1;SDS_P2;PMS_P1;PMS_P2;Temp;Humidity;BMP_temperature;BMP_pressure;BME280_temperature;BME280_humidity;BME280_pressure;Samples;Min_cycle;Max_cycle;Signal;HPM_P1;HPM_P2
2023/01/11 00:01:09;;;;;;;;;;;;;;;4.27;100.00;100115.72;4995046;28;20022;-60
2023/01/11 00:03:34;;;;;;;;;;;;;;;4.30;100.00;100114.78;5005406;28;19922;-60
2023/01/11 00:05:59;;;;;;;;;;;;;;;4.34;100.00;100114.66;4974359;28;20357;-60
2023/01/11 00:08:25;;;;;;;;;;;;;;;4.39;100.00;100106.06;4980463;28;19953;-60
2023/01/11 00:10:50;;;;;;;;;;;;;;;4.48;100.00;100106.63;4971612;28;20017;-59
2023/01/11 00:13:16;;;;;;;;;;;;;;;4.46;100.00;100100.72;4986058;28;20000;-59
2023/01/11 00:15:41;;;;;;;;;;;;;;;4.37;100.00;100098.47;4978575;28;19925;-59
2023/01/11 00:18:07;;;;;;;;;;;;;;;4.34;100.00;100096.84;4995028;28;19997;-59
2023/01/11 00:20:32;;;;;;;;;;;;;;;4.34;100.00;100090.91;4972689;28;19928;-60
2023/01/11 00:22:57;;;;;;;;;;;;;;;4.32;100.00;100096.03;4997608;28;19926;-59
2023/01/11 00:25:23;;;;;;;;;;;;;;;4.38;100.00;100091.66;4974694;28;20658;-59
2023/01/11 00:27:48;;;;;;;;;;;;;;;4.43;100.00;100087.25;4974621;28;19926;-59
2023/01/11 00:30:14;;;;;;;;;;;;;;;4.41;100.00;100081.38;4967494;28;19929;-60
2023/01/11 00:32:40;;;;;;;;;;;;;;;4.38;100.00;100079.75;5002204;28;19918;-60
2023/01/11 00:35:05;;;;;;;;;;;;;;;4.36;100.00;100071.31;4974443;28;19918;-60
2023/01/11 00:37:30;;;;;;;;;;;;;;;4.39;100.00;100067.84;4973919;28;19973;-60
2023/01/11 00:39:56;;;;;;;;;;;;;;;4.36;100.00;100056.03;5005524;28;19940;-60
2023/01/11 00:48:03;;;;;;;;;;;;;;;4.46;100.00;100049.78;4971548;28;20016;-60
2023/01/11 00:50:32;;;;;;;;;;;;;;;4.60;100.00;100040.91;4998460;28;19926;-61
2023/01/11 00:52:58;;;;;;;;;;;;;;;4.57;100.00;100028.28;5005175;28;19922;-60
2023/01/11 00:55:23;;;;;;;;;;;;;;;4.62;100.00;100026.41;4972845;28;19937;-59
2023/01/11 00:57:48;;;;;;;;;;;;;;;4.64;100.00;100029.72;4972668;28;19922;-62
2023/01/11 01:00:14;;;;;;;;;;;;;;;4.55;100.00;100024.91;4961586;28;19919;-59
2023/01/11 01:02:39;;;;;;;;;;;;;;;4.58;100.00;100035.84;5010753;28;19924;-60
2023/01/11 01:05:05;;;;;;;;;;;;;;;4.55;100.00;100035.94;4999814;28;20305;-59
2023/01/11 01:07:30;;;;;;;;;;;;;;;4.50;100.00;100027.59;5012543;28;19996;-59
2023/01/11 01:09:55;;;;;;;;;;;;;;;4.50;100.00;100033.56;5011933;28;19921;-59
2023/01/11 01:15:04;;;;;;;;;;;;;;;4.56;100.00;100027.41;4990020;28;19945;-59
2023/01/11 01:17:30;;;;;;;;;;;;;;;4.60;100.00;100025.59;5011310;28;19921;-60
2023/01/11 01:19:55;;;;;;;;;;;;;;;4.67;100.00;100027.91;5010727;28;19918;-59
2023/01/11 01:22:20;;;;;;;;;;;;;;;4.71;100.00;100033.75;5004146;28;20008;-59
2023/01/11 01:24:45;;;;;;;;;;;;;;;4.73;100.00;100029.44;5012337;28;20280;-59
2023/01/11 01:27:15;;;;;;;;;;;;;;;4.76;100.00;100025.97;5009407;28;20381;-59
2023/01/11 01:29:40;;;;;;;;;;;;;;;4.73;100.00;100032.00;5010291;28;19917;-60
2023/01/11 01:32:06;;;;;;;;;;;;;;;4.72;100.00;100030.31;5032635;28;19974;-59
2023/01/11 01:34:31;;;;;;;;;;;;;;;4.75;100.00;100021.75;5012015;28;19971;-59
2023/01/11 01:36:56;;;;;;;;;;;;;;;4.89;100.00;100018.75;5008303;28;19918;-59
2023/01/11 01:39:21;;;;;;;;;;;;;;;4.88;100.00;100017.94;5011316;28;19918;-59
2023/01/11 01:41:47;;;;;;;;;;;;;;;4.98;100.00;100021.00;5027581;28;19921;-59
2023/01/11 01:44:31;;;;;;;;;;;;;;;4.96;100.00;100015.13;5015219;28;19925;-59
2023/01/11 01:46:56;;;;;;;;;;;;;;;5.01;100.00;100020.91;5007975;28;20004;-59
2023/01/11 01:49:21;;;;;;;;;;;;;;;5.04;100.00;100025.91;5011011;28;19957;-59
2023/01/11 01:51:53;;;;;;;;;;;;;;;5.06;100.00;100023.31;5026899;28;20450;-59
2023/01/11 01:54:22;;;;;;;;;;;;;;;5.07;100.00;100019.88;5013552;28;20028;-60
2023/01/11 01:56:52;;;;;;;;;;;;;;;5.05;100.00;100025.03;5007562;28;19940;-59
2023/01/11 01:59:18;;;;;;;;;;;;;;;5.15;100.00;100011.09;4992816;28;19918;-60
2023/01/11 02:01:47;;;;;;;;;;;;;;;5.15;100.00;100008.53;5020607;28;19925;-60
2023/01/11 02:04:15;;;;;;;;;;;;;;;5.10;100.00;100009.59;5000089;28;19918;-59
2023/01/11 02:06:41;;;;;;;;;;;;;;;5.07;100.00;100007.94;5023224;28;20400;-59
2023/01/11 02:09:11;;;;;;;;;;;;;;;5.14;100.00;100001.78;4992696;28;20393;-59
2023/01/11 02:11:42;;;;;;;;;;;;;;;5.11;100.00;99998.50;5007453;28;19982;-59
2023/01/11 02:14:09;;;;;;;;;;;;;;;5.14;100.00;100011.16;5007097;28;19917;-59
2023/01/11 02:16:35;;;;;;;;;;;;;;;5.06;100.00;100002.91;5011235;28;20363;-59
2023/01/11 02:19:00;;;;;;;;;;;;;;;5.01;100.00;99995.41;5010000;28;19918;-59
2023/01/11 02:21:30;;;;;;;;;;;;;;;4.94;100.00;99991.41;5024222;28;19925;-59
2023/01/11 02:24:25;;;;;;;;;;;;;;;4.98;100.00;99991.25;5019470;28;19925;-60
2023/01/11 02:26:54;;;;;;;;;;;;;;;4.92;100.00;99986.34;5008843;28;19917;-59
2023/01/11 02:29:19;;;;;;;;;;;;;;;4.95;100.00;99990.50;5009740;28;20069;-60
2023/01/11 02:31:50;;;;;;;;;;;;;;;4.94;100.00;99991.41;5028833;28;20015;-59
2023/01/11 02:34:40;;;;;;;;;;;;;;;4.84;100.00;99984.06;5016432;28;19918;-59
2023/01/11 02:37:20;;;;;;;;;;;;;;;4.95;100.00;99975.22;5010544;28;19914;-60
2023/01/11 02:40:08;;;;;;;;;;;;;;;4.93;100.00;99972.72;5015606;28;20322;-59
2023/01/11 02:45:36;;;;;;;;;;;;;;;4.94;100.00;99971.03;4996226;28;20380;-59
2023/01/11 02:48:17;;;;;;;;;;;;;;;5.00;100.00;99969.09;4981280;28;19917;-58
2023/01/11 02:50:48;;;;;;;;;;;;;;;5.01;100.00;99973.31;4996362;28;20253;-59
2023/01/11 02:53:33;;;;;;;;;;;;;;;5.03;100.00;99967.34;5004482;28;19921;-60
2023/01/11 02:56:00;;;;;;;;;;;;;;;4.98;100.00;99964.94;5000244;28;20452;-59
2023/01/11 02:58:27;;;;;;;;;;;;;;;5.06;100.00;99970.63;5004867;28;19918;-59
2023/01/11 03:00:54;;;;;;;;;;;;;;;5.06;100.00;99962.97;5011327;28;19921;-59
2023/01/11 03:03:22;;;;;;;;;;;;;;;5.13;100.00;99961.84;5022754;28;19940;-59
2023/01/11 03:05:51;;;;;;;;;;;;;;;5.07;100.00;99961.25;5012952;28;19917;-59
2023/01/11 03:08:37;;;;;;;;;;;;;;;5.16;100.00;99950.75;5014741;28;19960;-60
2023/01/11 03:11:05;;;;;;;;;;;;;;;5.11;100.00;99948.34;4998258;28;20391;-59
2023/01/11 03:13:40;;;;;;;;;;;;;;;5.06;100.00;99951.91;5028894;28;19964;-60
2023/01/11 03:16:08;;;;;;;;;;;;;;;5.10;100.00;99949.22;5013719;28;19928;-60
2023/01/11 03:18:52;;;;;;;;;;;;;;;5.14;100.00;99943.13;5013870;28;20016;-59
2023/01/11 03:21:36;;;;;;;;;;;;;;;5.22;100.00;99937.78;5016358;28;19921;-59
2023/01/11 03:24:01;;;;;;;;;;;;;;;5.26;100.00;99936.78;4999070;28;20000;-59
2023/01/11 03:26:29;;;;;;;;;;;;;;;5.32;100.00;99925.50;5012957;28;20016;-59
2023/01/11 03:29:03;;;;;;;;;;;;;;;5.33;100.00;99922.94;5014694;28;20336;-59
2023/01/11 03:31:34;;;;;;;;;;;;;;;5.33;100.00;99927.16;5026325;28;20016;-60
2023/01/11 03:34:38;;;;;;;;;;;;;;;5.40;100.00;99925.25;5016464;28;19917;-59
2023/01/11 03:37:03;;;;;;;;;;;;;;;5.49;100.00;99914.69;5020221;28;20334;-59
2023/01/11 03:39:33;;;;;;;;;;;;;;;5.47;100.00;99911.38;5029600;28;19921;-59
2023/01/11 03:41:59;;;;;;;;;;;;;;;5.43;100.00;99910.66;5011745;28;19925;-59
2023/01/11 03:44:28;;;;;;;;;;;;;;;5.47;100.00;99909.66;5022552;28;19964;-60
2023/01/11 03:47:03;;;;;;;;;;;;;;;5.61;100.00;99910.88;5010886;28;20373;-59
2023/01/11 03:49:30;;;;;;;;;;;;;;;5.61;100.00;99906.59;4995497;28;20004;-60
2023/01/11 03:51:57;;;;;;;;;;;;;;;5.68;100.00;99896.16;5001943;28;19921;-59
2023/01/11 03:54:25;;;;;;;;;;;;;;;5.73;100.00;99904.47;5024909;28;19973;-59
2023/01/11 03:57:09;;;;;;;;;;;;;;;5.82;100.00;99901.59;4995236;28;20114;-60
2023/01/11 03:59:34;;;;;;;;;;;;;;;5.79;100.00;99892.31;5011873;28;20008;-59
2023/01/11 04:02:00;;;;;;;;;;;;;;;5.75;100.00;99900.16;4978213;28;20017;-59
2023/01/11 04:04:25;;;;;;;;;;;;;;;5.78;100.00;99887.25;4999047;28;20451;-60
2023/01/11 04:06:51;;;;;;;;;;;;;;;5.82;100.00;99888.81;5021911;28;19917;-62
2023/01/11 04:09:16;;;;;;;;;;;;;;;5.82;100.00;99884.53;5013908;28;19924;-59
2023/01/11 04:11:41;;;;;;;;;;;;;;;5.86;100.00;99887.00;5029467;28;20225;-60
2023/01/11 04:14:06;;;;;;;;;;;;;;;5.88;100.00;99890.28;5018198;28;19953;-59
2023/01/11 04:16:31;;;;;;;;;;;;;;;5.85;100.00;99882.78;5017052;28;19928;-59
2023/01/11 04:18:57;;;;;;;;;;;;;;;5.82;100.00;99883.72;5019520;28;19936;-60
2023/01/11 04:21:22;;;;;;;;;;;;;;;5.84;100.00;99876.81;5008117;28;19921;-59
2023/01/11 04:23:47;;;;;;;;;;;;;;;5.81;100.00;99861.63;5017568;28;19937;-59
2023/01/11 04:26:12;;;;;;;;;;;;;;;5.82;100.00;99868.41;5002760;28;19918;-59
2023/01/11 04:28:38;;;;;;;;;;;;;;;5.82;100.00;99866.66;5007004;28;20000;-59
2023/01/11 04:31:03;;;;;;;;;;;;;;;5.84;100.00;99871.72;5010422;28;20266;-59
2023/01/11 04:33:28;;;;;;;;;;;;;;;5.94;100.00;99865.38;5022030;28;19922;-59
2023/01/11 04:35:53;;;;;;;;;;;;;;;5.99;100.00;99857.53;5001810;28;20361;-59
2023/01/11 04:38:19;;;;;;;;;;;;;;;6.03;100.00;99861.66;5034115;28;19971;-61
2023/01/11 04:40:46;;;;;;;;;;;;;;;6.10;100.00;99864.78;4999722;28;19921;-60
2023/01/11 04:43:11;;;;;;;;;;;;;;;6.27;100.00;99853.91;5002665;28;19948;-59
2023/01/11 04:45:36;;;;;;;;;;;;;;;6.24;100.00;99861.69;5001617;28;20000;-59
2023/01/11 04:48:02;;;;;;;;;;;;;;;6.12;100.00;99850.25;4998137;28;19918;-60
2023/01/11 04:50:27;;;;;;;;;;;;;;;6.05;100.00;99856.47;4996861;28;19921;-59
2023/01/11 04:52:52;;;;;;;;;;;;;;;6.10;100.00;99847.75;5023856;28;19969;-59
2023/01/11 04:55:18;;;;;;;;;;;;;;;6.11;100.00;99843.47;5001439;28;19950;-59
2023/01/11 04:57:44;;;;;;;;;;;;;;;6.09;100.00;99843.53;5007579;28;19921;-59
2023/01/11 05:00:09;;;;;;;;;;;;;;;6.19;100.00;99845.72;5028155;28;19928;-60
2023/01/11 05:02:35;;;;;;;;;;;;;;;6.24;100.00;99854.88;5013359;28;19922;-60
2023/01/11 05:05:01;;;;;;;;;;;;;;;6.24;100.00;99852.31;5013049;28;20376;-60
2023/01/11 05:07:26;;;;;;;;;;;;;;;6.32;100.00;99843.50;4994142;28;20242;-57
2023/01/11 05:09:51;;;;;;;;;;;;;;;6.33;100.00;99842.63;5004427;28;20004;-59
2023/01/11 05:12:16;;;;;;;;;;;;;;;6.29;100.00;99836.81;5034139;28;20289;-58
2023/01/11 05:14:41;;;;;;;;;;;;;;;6.33;100.00;99835.78;5003360;28;19960;-58
2023/01/11 05:17:06;;;;;;;;;;;;;;;6.37;100.00;99826.25;5010703;28;20013;-57
2023/01/11 05:19:32;;;;;;;;;;;;;;;6.41;100.00;99827.78;5012534;28;20300;-58
2023/01/11 05:21:57;;;;;;;;;;;;;;;6.56;100.00;99822.03;5018749;28;20436;-58
2023/01/11 05:24:22;;;;;;;;;;;;;;;6.53;100.00;99823.91;5013882;28;19918;-58
2023/01/11 05:26:49;;;;;;;;;;;;;;;6.66;100.00;99826.75;5010720;28;20303;-58
2023/01/11 05:29:19;;;;;;;;;;;;;;;6.71;100.00;99814.59;5012121;28;19921;-60
2023/01/11 05:31:44;;;;;;;;;;;;;;;6.74;100.00;99819.59;5018110;28;19924;-58
2023/01/11 05:34:11;;;;;;;;;;;;;;;6.74;100.00;99815.31;5003176;28;19921;-58
2023/01/11 05:36:36;;;;;;;;;;;;;;;6.78;100.00;99810.88;4999639;28;19922;-58
2023/01/11 05:39:03;;;;;;;;;;;;;;;6.77;100.00;99809.22;5011170;28;19971;-58
2023/01/11 05:41:28;;;;;;;;;;;;;;;6.84;100.00;99800.41;5010077;28;20396;-58
2023/01/11 05:46:38;;;;;;;;;;;;;;;6.95;100.00;99795.63;5011395;28;20475;-58
2023/01/11 05:49:04;;;;;;;;;;;;;;;6.97;100.00;99790.47;5012351;28;19929;-58
2023/01/11 05:51:29;;;;;;;;;;;;;;;7.04;100.00;99788.47;5024187;28;19925;-58
2023/01/11 05:53:55;;;;;;;;;;;;;;;7.05;100.00;99788.38;5020067;28;19917;-58
2023/01/11 05:56:20;;;;;;;;;;;;;;;7.12;100.00;99796.63;5010603;28;20373;-58
2023/01/11 05:58:46;;;;;;;;;;;;;;;7.15;100.00;99780.31;4998489;28;19918;-59
2023/01/11 06:01:12;;;;;;;;;;;;;;;7.20;100.00;99781.75;5001155;28;19928;-58
2023/01/11 06:03:37;;;;;;;;;;;;;;;7.24;100.00;99777.31;5005864;28;19924;-61
2023/01/11 06:06:02;;;;;;;;;;;;;;;7.34;100.00;99777.72;4992242;28;20321;-58
2023/01/11 06:08:27;;;;;;;;;;;;;;;7.37;100.00;99777.59;4992443;28;19922;-58
2023/01/11 06:10:53;;;;;;;;;;;;;;;7.42;100.00;99771.34;4995790;28;20256;-59
2023/01/11 06:13:28;;;;;;;;;;;;;;;7.50;100.00;99773.53;5010678;28;19926;-61
2023/01/11 06:16:01;;;;;;;;;;;;;;;7.53;100.00;99772.56;4998255;28;19917;-58
2023/01/11 06:18:27;;;;;;;;;;;;;;;7.42;100.00;99771.34;5011345;28;19921;-58
2023/01/11 06:20:53;;;;;;;;;;;;;;;7.33;100.00;99764.13;5014558;28;20296;-58
2023/01/11 06:23:19;;;;;;;;;;;;;;;7.36;100.00;99763.13;5018383;28;19921;-60
2023/01/11 06:25:44;;;;;;;;;;;;;;;7.50;100.00;99755.63;5010895;28;20339;-60
2023/01/11 06:28:10;;;;;;;;;;;;;;;7.59;100.00;99755.19;5008587;28;19921;-58
2023/01/11 06:30:35;;;;;;;;;;;;;;;7.63;100.00;99747.38;5009895;28;19928;-58
2023/01/11 06:33:04;;;;;;;;;;;;;;;7.65;100.00;99745.56;5032996;28;20290;-59
2023/01/11 06:35:30;;;;;;;;;;;;;;;7.68;100.00;99748.81;5005093;28;19921;-58
2023/01/11 06:37:55;;;;;;;;;;;;;;;7.69;100.00;99745.34;5005573;28;19947;-58
2023/01/11 06:40:20;;;;;;;;;;;;;;;7.75;100.00;99742.50;4997664;28;19933;-58
2023/01/11 06:42:46;;;;;;;;;;;;;;;7.80;100.00;99733.75;5033452;28;20069;-58
2023/01/11 06:45:11;;;;;;;;;;;;;;;7.73;100.00;99735.78;5011139;28;19928;-59
2023/01/11 06:47:36;;;;;;;;;;;;;;;7.77;100.00;99736.47;5010070;28;19922;-59
2023/01/11 06:50:02;;;;;;;;;;;;;;;7.77;100.00;99736.47;5008721;28;20324;-59
2023/01/11 06:52:27;;;;;;;;;;;;;;;7.76;100.00;99733.06;5018927;28;19926;-59
2023/01/11 06:54:52;;;;;;;;;;;;;;;7.83;100.00;99736.19;5011168;28;20345;-59
2023/01/11 06:57:17;;;;;;;;;;;;;;;7.81;100.00;99726.00;5007803;28;19922;-59
2023/01/11 06:59:42;;;;;;;;;;;;;;;7.82;100.00;99730.22;5000260;28;19945;-59
2023/01/11 07:02:08;;;;;;;;;;;;;;;7.88;100.00;99732.47;5018429;28;20339;-59
2023/01/11 07:04:34;;;;;;;;;;;;;;;7.89;100.00;99726.44;4992727;28;19968;-59
2023/01/11 07:06:59;;;;;;;;;;;;;;;7.76;100.00;99725.38;4991614;28;20338;-60
2023/01/11 07:09:24;;;;;;;;;;;;;;;7.74;100.00;99734.91;4994880;28;19922;-59
2023/01/11 07:11:49;;;;;;;;;;;;;;;7.79;100.00;99730.38;5028398;28;19974;-64
2023/01/11 07:14:18;;;;;;;;;;;;;;;7.79;100.00;99729.53;5006020;28;19922;-59
2023/01/11 07:16:44;;;;;;;;;;;;;;;7.80;100.00;99734.59;5002927;28;19924;-58
2023/01/11 07:19:09;;;;;;;;;;;;;;;7.85;100.00;99735.19;5036948;28;20245;-60
2023/01/11 07:21:34;;;;;;;;;;;;;;;7.87;100.00;99733.38;5016007;28;19921;-61
2023/01/11 07:24:00;;;;;;;;;;;;;;;7.90;100.00;99738.34;5020798;28;20055;-60
2023/01/11 07:26:27;;;;;;;;;;;;;;;7.79;100.00;99744.91;5009216;28;19929;-59
2023/01/11 07:28:54;;;;;;;;;;;;;;;7.81;100.00;99751.59;5003889;28;20297;-59
2023/01/11 07:31:19;;;;;;;;;;;;;;;7.83;100.00;99749.78;5017236;28;19936;-59
2023/01/11 07:33:44;;;;;;;;;;;;;;;7.87;100.00;99750.47;5024501;28;19932;-60
2023/01/11 07:36:09;;;;;;;;;;;;;;;7.89;100.00;99748.69;5006675;28;19972;-60
2023/01/11 07:38:34;;;;;;;;;;;;;;;7.81;100.00;99753.34;5014261;28;19921;-59
2023/01/11 07:40:59;;;;;;;;;;;;;;;7.82;100.00;99753.25;5017875;28;19929;-60
2023/01/11 07:43:28;;;;;;;;;;;;;;;7.71;100.00;99746.09;5028940;28;19929;-60
2023/01/11 07:45:53;;;;;;;;;;;;;;;7.70;100.00;99747.00;5009462;28;19930;-59
2023/01/11 07:48:20;;;;;;;;;;;;;;;7.67;100.00;99741.22;5013671;28;20482;-59
2023/01/11 07:50:46;;;;;;;;;;;;;;;7.70;100.00;99747.00;5010357;28;19929;-60
2023/01/11 07:53:11;;;;;;;;;;;;;;;7.70;100.00;99746.16;5022659;28;19918;-59
2023/01/11 07:55:38;;;;;;;;;;;;;;;7.72;100.00;99747.75;5011201;28;19922;-58
2023/01/11 07:58:04;;;;;;;;;;;;;;;7.74;100.00;99748.50;5002147;28;19924;-59
2023/01/11 08:00:29;;;;;;;;;;;;;;;7.72;100.00;99746.94;4989244;28;19957;-60
2023/01/11 08:02:55;;;;;;;;;;;;;;;7.73;100.00;99751.16;4990569;28;20354;-60
2023/01/11 08:05:20;;;;;;;;;;;;;;;7.71;100.00;99755.50;4988675;28;19922;-62
2023/01/11 08:07:45;;;;;;;;;;;;;;;7.70;100.00;99752.13;4978113;28;19926;-60
2023/01/11 08:10:11;;;;;;;;;;;;;;;7.75;100.00;99751.91;4968677;28;19929;-59
2023/01/11 08:15:30;;;;;;;;;;;;;;;7.79;100.00;99748.31;4980776;28;20017;-60
2023/01/11 08:17:56;;;;;;;;;;;;;;;7.85;100.00;99749.72;5015484;28;20008;-61
2023/01/11 08:20:21;;;;;;;;;;;;;;;7.83;100.00;99739.56;4979283;28;21466;-60
2023/01/11 08:22:47;;;;;;;;;;;;;;;7.81;100.00;99740.53;5000437;28;19976;-59
2023/01/11 08:25:12;;;;;;;;;;;;;;;7.88;100.00;99744.47;4986875;28;19933;-59
2023/01/11 08:27:38;;;;;;;;;;;;;;;7.94;100.00;99743.31;4985043;28;19926;-58
2023/01/11 08:30:03;;;;;;;;;;;;;;;7.97;100.00;99740.63;4972833;28;19918;-58
2023/01/11 08:32:28;;;;;;;;;;;;;;;8.00;100.00;99741.28;5008059;28;19922;-58
2023/01/11 08:34:53;;;;;;;;;;;;;;;7.99;100.00;99738.78;4981620;28;19922;-58
2023/01/11 08:37:19;;;;;;;;;;;;;;;7.97;100.00;99736.31;4977706;28;20016;-58
2023/01/11 08:39:44;;;;;;;;;;;;;;;8.03;100.00;99743.69;4981574;28;19929;-58
2023/01/11 08:42:09;;;;;;;;;;;;;;;8.06;100.00;99738.44;4999535;28;19932;-59
2023/01/11 08:44:34;;;;;;;;;;;;;;;7.97;100.00;99738.06;4982336;28;19927;-60
2023/01/11 08:47:00;;;;;;;;;;;;;;;7.99;100.00;99741.34;4974844;28;19925;-58
2023/01/11 08:49:25;;;;;;;;;;;;;;;7.92;100.00;99735.72;4975391;28;20122;-59
2023/01/11 08:51:50;;;;;;;;;;;;;;;7.93;100.00;99742.50;4993146;28;19944;-60
2023/01/11 08:54:16;;;;;;;;;;;;;;;7.98;100.00;99740.53;4978670;28;20009;-59
2023/01/11 08:56:41;;;;;;;;;;;;;;;8.07;100.00;99736.69;4974555;28;19925;-59
2023/01/11 08:59:08;;;;;;;;;;;;;;;8.12;100.00;99728.78;4977110;28;19964;-59
2023/01/11 09:01:33;;;;;;;;;;;;;;;8.07;100.00;99734.13;4997064;28;20412;-59
2023/01/11 09:03:58;;;;;;;;;;;;;;;8.05;100.00;99726.53;4984827;28;19930;-58
2023/01/11 09:06:24;;;;;;;;;;;;;;;8.08;100.00;99735.78;4974990;28;19928;-58
2023/01/11 09:08:49;;;;;;;;;;;;;;;8.13;100.00;99735.56;4977065;28;19922;-58
2023/01/11 09:13:58;;;;;;;;;;;;;;;8.16;100.00;99736.25;4982284;28;19973;-58
2023/01/11 09:16:23;;;;;;;;;;;;;;;8.26;100.00;99738.31;4974567;28;19930;-58
2023/01/11 09:18:48;;;;;;;;;;;;;;;8.26;100.00;99734.03;4984002;28;19918;-58
2023/01/11 09:21:14;;;;;;;;;;;;;;;8.22;100.00;99733.38;4993694;28;19994;-58
2023/01/11 09:23:39;;;;;;;;;;;;;;;8.24;100.00;99743.53;4992639;28;19922;-58
2023/01/11 09:26:04;;;;;;;;;;;;;;;8.28;100.00;99746.78;4980404;28;19945;-58
2023/01/11 09:28:29;;;;;;;;;;;;;;;8.38;100.00;99741.09;4980431;28;19977;-60
2023/01/11 09:30:54;;;;;;;;;;;;;;;8.41;100.00;99742.69;4985628;28;20007;-59
2023/01/11 09:33:20;;;;;;;;;;;;;;;8.39;100.00;99742.72;4998042;28;19918;-59
2023/01/11 09:35:45;;;;;;;;;;;;;;;8.44;100.00;99747.63;4978419;28;19929;-58
2023/01/11 09:38:11;;;;;;;;;;;;;;;8.47;100.00;99744.97;4986532;28;19918;-58
2023/01/11 09:40:47;;;;;;;;;;;;;;;8.49;100.00;99744.88;4985176;28;20475;-58
2023/01/11 09:43:15;;;;;;;;;;;;;;;8.46;100.00;99748.44;4979921;28;19922;-58
2023/01/11 09:45:45;;;;;;;;;;;;;;;8.43;100.00;99748.53;4988557;28;19926;-60
2023/01/11 09:48:27;;;;;;;;;;;;;;;8.46;100.00;99745.88;4982739;28;19929;-58
2023/01/11 09:50:53;;;;;;;;;;;;;;;8.53;100.00;99743.78;4979351;28;20006;-58
2023/01/11 09:53:27;;;;;;;;;;;;;;;8.54;100.00;99745.47;4992142;28;19933;-58
2023/01/11 09:55:55;;;;;;;;;;;;;;;8.51;100.00;99740.50;4980901;28;19922;-59
2023/01/11 09:58:31;;;;;;;;;;;;;;;8.56;100.00;99748.78;4982828;28;19918;-58
2023/01/11 10:01:12;;;;;;;;;;;;;;;8.61;100.00;99749.38;4991234;28;20345;-59
2023/01/11 10:03:57;;;;;;;;;;;;;;;8.75;100.00;99735.81;4997823;28;19922;-61
2023/01/11 10:06:23;;;;;;;;;;;;;;;8.78;100.00;99738.22;4983916;28;19925;-60
2023/01/11 10:09:02;;;;;;;;;;;;;;;8.85;100.00;99743.84;4988043;28;19933;-58
2023/01/11 10:11:34;;;;;;;;;;;;;;;8.84;100.00;99743.03;4995372;28;20408;-58
2023/01/11 10:14:09;;;;;;;;;;;;;;;8.82;100.00;99749.97;4998820;28;20317;-59
2023/01/11 10:16:46;;;;;;;;;;;;;;;8.87;100.00;99752.31;5023121;28;20000;-59
2023/01/11 10:19:19;;;;;;;;;;;;;;;8.87;100.00;99750.56;5012381;28;19918;-59
2023/01/11 10:21:45;;;;;;;;;;;;;;;8.87;100.00;99740.28;4983846;28;19992;-59
2023/01/11 10:24:13;;;;;;;;;;;;;;;8.91;100.00;99740.16;4977206;28;20378;-60
2023/01/11 10:26:40;;;;;;;;;;;;;;;8.94;100.00;99739.97;4971568;28;19930;-59
2023/01/11 10:32:38;;;;;;;;;;;;;;;8.90;100.00;99746.19;5013264;28;20027;-59
2023/01/11 10:35:40;;;;;;;;;;;;;;;8.88;100.00;99748.81;4989376;28;20353;-59
2023/01/11 10:41:02;;;;;;;;;;;;;;;8.77;100.00;99753.69;5008235;28;20438;-59
2023/01/11 10:43:30;;;;;;;;;;;;;;;8.72;100.00;99782.97;5006348;28;19968;-59
2023/01/11 10:45:58;;;;;;;;;;;;;;;8.85;100.00;99782.31;4995976;28;19980;-61
2023/01/11 10:48:23;;;;;;;;;;;;;;;8.86;100.00;99766.84;5001424;28;20356;-60
2023/01/11 10:51:06;;;;;;;;;;;;;;;8.81;100.00;99756.00;4997921;28;19958;-61
2023/01/11 10:53:47;;;;;;;;;;;;;;;8.88;100.00;99754.78;5026404;28;19979;-60
2023/01/11 10:56:30;;;;;;;;;;;;;;;8.96;100.00;99751.81;4991043;28;19924;-61
2023/01/11 10:59:19;;;;;;;;;;;;;;;9.15;100.00;99750.81;5000975;28;19918;-60
2023/01/11 11:01:45;;;;;;;;;;;;;;;9.09;100.00;99744.28;5009479;28;19925;-60
2023/01/11 11:04:34;;;;;;;;;;;;;;;9.23;100.00;99746.09;5000810;28;19944;-60
2023/01/11 11:07:02;;;;;;;;;;;;;;;9.46;100.00;99737.09;4993359;28;19925;-73
2023/01/11 11:09:46;;;;;;;;;;;;;;;9.58;100.00;99733.03;5004841;28;19952;-76
2023/01/11 11:12:20;;;;;;;;;;;;;;;9.70;100.00;99736.66;5025504;28;20003;-73
2023/01/11 11:14:45;;;;;;;;;;;;;;;9.88;100.00;99736.53;4999367;28;20084;-73
2023/01/11 11:17:17;;;;;;;;;;;;;;;10.09;100.00;99734.47;4999931;28;20428;-73
2023/01/11 11:19:42;;;;;;;;;;;;;;;10.23;100.00;99729.31;5003920;28;20361;-76
2023/01/11 11:22:09;;;;;;;;;;;;;;;10.44;100.00;99718.72;5034713;28;19929;-73
2023/01/11 11:24:40;;;;;;;;;;;;;;;10.73;100.00;99708.41;5011837;28;19945;-71
2023/01/11 11:27:42;;;;;;;;;;;;;;;10.92;100.00;99716.63;5008108;28;19980;-73
2023/01/11 11:30:11;;;;;;;;;;;;;;;10.96;100.00;99720.69;4947341;28;19922;-73
2023/01/11 11:32:38;;;;;;;;;;;;;;;11.28;100.00;99722.16;4959363;28;20069;-73
2023/01/11 11:35:06;;;;;;;;;;;;;;;11.33;100.00;99709.81;4968544;28;19972;-75
2023/01/11 11:37:33;;;;;;;;;;;;;;;11.11;100.00;99718.06;4969630;28;19922;-73
2023/01/11 11:39:58;;;;;;;;;;;;;;;11.26;100.00;99724.81;4961805;28;19918;-62
2023/01/11 11:42:23;;;;;;;;;;;;;;;11.38;100.00;99728.34;4943933;28;19926;-61
2023/01/11 11:45:13;;;;;;;;;;;;;;;11.36;100.00;99734.53;4966046;28;19953;-61
2023/01/11 11:47:38;;;;;;;;;;;;;;;11.37;100.00;99736.19;4961746;28;19941;-63
2023/01/11 11:50:18;;;;;;;;;;;;;;;11.30;100.00;99734.00;4945281;28;20347;-62
2023/01/11 11:52:48;;;;;;;;;;;;;;;11.15;100.00;99742.72;4951121;28;20371;-61
2023/01/11 11:55:13;;;;;;;;;;;;;;;11.22;100.00;99743.94;4956071;28;20389;-62
2023/01/11 11:57:40;;;;;;;;;;;;;;;11.03;100.00;99746.84;4956086;28;20069;-61
2023/01/11 12:00:23;;;;;;;;;;;;;;;11.03;100.00;99746.84;4934453;28;19922;-62
2023/01/11 12:02:53;;;;;;;;;;;;;;;10.89;100.00;99745.16;4953137;28;20038;-63
2023/01/11 12:05:18;;;;;;;;;;;;;;;10.75;100.00;99751.09;4974809;28;19968;-62
2023/01/11 12:07:45;;;;;;;;;;;;;;;10.69;100.00;99750.66;4972584;28;20013;-60
2023/01/11 12:10:20;;;;;;;;;;;;;;;10.61;100.00;99759.66;4958198;28;19929;-63
2023/01/11 12:12:56;;;;;;;;;;;;;;;10.60;100.00;99755.44;4974010;28;19948;-62
2023/01/11 12:15:23;;;;;;;;;;;;;;;10.62;100.00;99760.50;4978734;28;19956;-62
2023/01/11 12:17:49;;;;;;;;;;;;;;;10.51;100.00;99757.75;4980558;28;19977;-61
2023/01/11 12:20:20;;;;;;;;;;;;;;;10.39;100.00;99749.84;4969501;28;20016;-62
2023/01/11 12:22:45;;;;;;;;;;;;;;;10.27;100.00;99746.22;4963061;28;20415;-62
2023/01/11 12:25:13;;;;;;;;;;;;;;;10.32;100.00;99748.53;4986005;28;20035;-63
2023/01/11 12:27:45;;;;;;;;;;;;;;;10.27;100.00;99737.69;4993305;28;20332;-62
2023/01/11 12:30:10;;;;;;;;;;;;;;;10.21;100.00;99756.03;4973969;28;19922;-63
2023/01/11 12:32:54;;;;;;;;;;;;;;;10.39;100.00;99756.72;4992252;28;20064;-63
2023/01/11 12:35:38;;;;;;;;;;;;;;;10.15;100.00;99763.19;4967359;28;20421;-62
2023/01/11 12:38:09;;;;;;;;;;;;;;;10.18;100.00;99769.88;4982962;28;19918;-62
2023/01/11 12:40:49;;;;;;;;;;;;;;;10.15;100.00;99777.78;4987580;28;20010;-62
2023/01/11 12:43:22;;;;;;;;;;;;;;;10.06;100.00;99775.75;5002000;28;20363;-62
2023/01/11 12:46:11;;;;;;;;;;;;;;;10.11;100.00;99784.84;4991103;28;19918;-67
2023/01/11 12:48:40;;;;;;;;;;;;;;;10.02;100.00;99777.66;4991613;28;19924;-62
2023/01/11 12:51:11;;;;;;;;;;;;;;;10.03;100.00;99776.75;4990257;28;20016;-63
2023/01/11 12:53:58;;;;;;;;;;;;;;;10.09;100.00;99785.84;4999596;28;19925;-62
2023/01/11 12:56:34;;;;;;;;;;;;;;;10.20;100.00;99790.38;4992484;28;19918;-62
2023/01/11 12:59:08;;;;;;;;;;;;;;;10.25;100.00;99791.75;4981718;28;20365;-62
2023/01/11 13:01:41;;;;;;;;;;;;;;;10.23;100.00;99797.91;4970612;28;19929;-62
2023/01/11 13:04:25;;;;;;;;;;;;;;;10.31;100.00;99793.16;4978625;28;19925;-62
2023/01/11 13:06:53;;;;;;;;;;;;;;;10.36;100.00;99798.00;4980493;28;20395;-63
2023/01/11 13:09:34;;;;;;;;;;;;;;;10.45;100.00;99800.91;4977427;28;20009;-61
2023/01/11 13:12:02;;;;;;;;;;;;;;;10.50;100.00;99782.63;4986223;28;19921;-61
2023/01/11 13:14:50;;;;;;;;;;;;;;;10.59;100.00;99786.41;4971221;28;20353;-62
2023/01/11 13:17:36;;;;;;;;;;;;;;;10.55;100.00;99797.81;4936317;29;20014;-62